sensor_id;sensor_type;location;lat;lon;timestamp;P1;durP1;ratioP1;P2;durP2;ratioP2
64550;SDS011;50945;44.472;-123.352;2022-10-14T00:01:18;16.58;;;8.00;;
64550;SDS011;50945;44.472;-123.352;2022-10-14T00:03:46;11.70;;;8.13;;
64550;SDS011;50945;44.472;-123.352;2022-10-14T00:06:14;13.80;;;7.60;;
64550;SDS011;50945;44.472;-123.352;2022-10-14T00:08:42;14.05;;;8.07;;
64550;SDS011;50945;44.472;-123.352;2022-10-14T00:11:13;18.88;;;7.80;;
64550;SDS011;50945;44.472;-123.352;2022-10-14T00:13:43;14.85;;;7.43;;
64550;SDS011;50945;44.472;-123.352;2022-10-14T00:16:17;19.23;;;7.55;;
64550;SDS011;50945;44.472;-123.352;2022-10-14T00:18:46;13.63;;;8.13;;
64550;SDS011;50945;44.472;-123.352;2022-10-14T00:21:12;13.75;;;7.97;;
64550;SDS011;50945;44.472;-123.352;2022-10-14T00:23:38;17.98;;;8.13;;
64550;SDS011;50945;44.472;-123.352;2022-10-14T00:26:05;12.85;;;7.38;;
64550;SDS011;50945;44.472;-123.352;2022-10-14T00:28:31;11.10;;;7.22;;
64550;SDS011;50945;44.472;-123.352;2022-10-14T00:30:59;14.05;;;8.05;;
64550;SDS011;50945;44.472;-123.352;2022-10-14T00:33:27;13.77;;;7.63;;
64550;SDS011;50945;44.472;-123.352;2022-10-14T00:35:58;15.10;;;7.43;;
64550;SDS011;50945;44.472;-123.352;2022-10-14T00:38:26;15.88;;;8.18;;
64550;SDS011;50945;44.472;-123.352;2022-10-14T00:40:53;20.50;;;7.55;;
64550;SDS011;50945;44.472;-123.352;2022-10-14T00:43:21;14.48;;;7.53;;
64550;SDS011;50945;44.472;-123.352;2022-10-14T00:45:49;13.30;;;7.72;;
64550;SDS011;50945;44.472;-123.352;2022-10-14T00:48:17;15.55;;;7.60;;
64550;SDS011;50945;44.472;-123.352;2022-10-14T00:50:46;14.02;;;7.65;;
64550;SDS011;50945;44.472;-123.352;2022-10-14T00:53:16;15.13;;;7.53;;
64550;SDS011;50945;44.472;-123.352;2022-10-14T00:55:44;18.02;;;8.13;;
64550;SDS011;50945;44.472;-123.352;2022-10-14T00:58:11;19.58;;;8.20;;
64550;SDS011;50945;44.472;-123.352;2022-10-14T01:00:37;18.38;;;8.35;;
64550;SDS011;50945;44.472;-123.352;2022-10-14T01:03:08;16.63;;;7.80;;
64550;SDS011;50945;44.472;-123.352;2022-10-14T01:05:59;14.02;;;7.82;;
64550;SDS011;50945;44.472;-123.352;2022-10-14T01:09:19;17.52;;;7.68;;
64550;SDS011;50945;44.472;-123.352;2022-10-14T01:16:54;21.25;;;8.55;;
64550;SDS011;50945;44.472;-123.352;2022-10-14T01:22:34;18.80;;;7.50;;
64550;SDS011;50945;44.472;-123.352;2022-10-14T01:31:07;15.75;;;8.13;;
64550;SDS011;50945;44.472;-123.352;2022-10-14T01:33:40;15.50;;;8.55;;
64550;SDS011;50945;44.472;-123.352;2022-10-14T01:38:45;15.98;;;8.38;;
64550;SDS011;50945;44.472;-123.352;2022-10-14T01:41:17;18.27;;;8.10;;
64550;SDS011;50945;44.472;-123.352;2022-10-14T01:43:45;14.25;;;8.32;;
64550;SDS011;50945;44.472;-123.352;2022-10-14T01:46:15;14.73;;;8.95;;
64550;SDS011;50945;44.472;-123.352;2022-10-14T01:48:44;14.65;;;8.80;;
64550;SDS011;50945;44.472;-123.352;2022-10-14T01:51:37;16.00;;;8.13;;
64550;SDS011;50945;44.472;-123.352;2022-10-14T01:56:54;17.50;;;9.18;;
64550;SDS011;50945;44.472;-123.352;2022-10-14T01:59:25;14.75;;;8.02;;
64550;SDS011;50945;44.472;-123.352;2022-10-14T02:01:56;14.82;;;8.35;;
64550;SDS011;50945;44.472;-123.352;2022-10-14T02:04:23;13.38;;;8.35;;
64550;SDS011;50945;44.472;-123.352;2022-10-14T02:09:42;17.00;;;7.95;;
64550;SDS011;50945;44.472;-123.352;2022-10-14T02:12:38;13.52;;;8.63;;
64550;SDS011;50945;44.472;-123.352;2022-10-14T02:18:14;13.88;;;7.70;;
64550;SDS011;50945;44.472;-123.352;2022-10-14T02:21:19;13.60;;;7.68;;
64550;SDS011;50945;44.472;-123.352;2022-10-14T02:24:08;11.98;;;7.57;;
64550;SDS011;50945;44.472;-123.352;2022-10-14T02:26:36;10.98;;;7.45;;
64550;SDS011;50945;44.472;-123.352;2022-10-14T02:29:04;13.18;;;7.63;;
64550;SDS011;50945;44.472;-123.352;2022-10-14T02:31:31;11.55;;;8.05;;
64550;SDS011;50945;44.472;-123.352;2022-10-14T02:34:01;14.07;;;7.43;;
64550;SDS011;50945;44.472;-123.352;2022-10-14T02:36:30;11.30;;;7.43;;
64550;SDS011;50945;44.472;-123.352;2022-10-14T02:38:58;13.80;;;7.78;;
64550;SDS011;50945;44.472;-123.352;2022-10-14T02:41:26;12.25;;;8.40;;
64550;SDS011;50945;44.472;-123.352;2022-10-14T02:43:58;11.48;;;8.23;;
64550;SDS011;50945;44.472;-123.352;2022-10-14T02:46:25;13.32;;;7.75;;
64550;SDS011;50945;44.472;-123.352;2022-10-14T02:48:53;11.00;;;7.38;;
64550;SDS011;50945;44.472;-123.352;2022-10-14T02:53:45;12.57;;;6.80;;
64550;SDS011;50945;44.472;-123.352;2022-10-14T02:56:12;12.07;;;7.57;;
64550;SDS011;50945;44.472;-123.352;2022-10-14T02:58:41;14.50;;;8.02;;
64550;SDS011;50945;44.472;-123.352;2022-10-14T03:01:07;12.20;;;7.28;;
64550;SDS011;50945;44.472;-123.352;2022-10-14T03:03:34;15.82;;;7.78;;
64550;SDS011;50945;44.472;-123.352;2022-10-14T03:06:00;12.27;;;7.30;;
64550;SDS011;50945;44.472;-123.352;2022-10-14T03:10:53;11.90;;;7.63;;
64550;SDS011;50945;44.472;-123.352;2022-10-14T03:13:19;11.63;;;7.57;;
64550;SDS011;50945;44.472;-123.352;2022-10-14T03:20:43;13.13;;;7.70;;
64550;SDS011;50945;44.472;-123.352;2022-10-14T03:23:11;10.88;;;7.28;;
64550;SDS011;50945;44.472;-123.352;2022-10-14T03:25:39;10.35;;;6.88;;
64550;SDS011;50945;44.472;-123.352;2022-10-14T03:30:31;10.40;;;6.88;;
64550;SDS011;50945;44.472;-123.352;2022-10-14T03:32:57;15.75;;;7.72;;
64550;SDS011;50945;44.472;-123.352;2022-10-14T03:37:50;10.25;;;7.63;;
64550;SDS011;50945;44.472;-123.352;2022-10-14T03:40:17;14.07;;;8.10;;
64550;SDS011;50945;44.472;-123.352;2022-10-14T03:42:44;12.43;;;7.47;;
64550;SDS011;50945;44.472;-123.352;2022-10-14T03:45:10;11.45;;;7.57;;
64550;SDS011;50945;44.472;-123.352;2022-10-14T03:47:37;13.45;;;7.82;;
64550;SDS011;50945;44.472;-123.352;2022-10-14T03:50:03;13.50;;;8.23;;
64550;SDS011;50945;44.472;-123.352;2022-10-14T03:52:30;15.00;;;9.10;;
64550;SDS011;50945;44.472;-123.352;2022-10-14T03:54:57;15.63;;;8.57;;
64550;SDS011;50945;44.472;-123.352;2022-10-14T03:57:26;13.40;;;7.65;;
64550;SDS011;50945;44.472;-123.352;2022-10-14T03:59:53;14.38;;;7.82;;
64550;SDS011;50945;44.472;-123.352;2022-10-14T04:02:20;17.77;;;7.97;;
64550;SDS011;50945;44.472;-123.352;2022-10-14T04:04:49;14.48;;;7.57;;
64550;SDS011;50945;44.472;-123.352;2022-10-14T04:07:16;15.07;;;7.50;;
64550;SDS011;50945;44.472;-123.352;2022-10-14T04:09:42;12.40;;;7.28;;
64550;SDS011;50945;44.472;-123.352;2022-10-14T04:12:09;18.50;;;7.43;;
64550;SDS011;50945;44.472;-123.352;2022-10-14T04:17:02;15.25;;;7.82;;
64550;SDS011;50945;44.472;-123.352;2022-10-14T04:19:29;11.40;;;7.65;;
64550;SDS011;50945;44.472;-123.352;2022-10-14T04:21:56;11.77;;;7.50;;
64550;SDS011;50945;44.472;-123.352;2022-10-14T04:24:23;11.88;;;7.63;;
64550;SDS011;50945;44.472;-123.352;2022-10-14T04:29:17;10.55;;;7.55;;
64550;SDS011;50945;44.472;-123.352;2022-10-14T04:31:44;9.35;;;7.15;;
64550;SDS011;50945;44.472;-123.352;2022-10-14T04:34:10;11.63;;;7.38;;
64550;SDS011;50945;44.472;-123.352;2022-10-14T04:36:38;14.13;;;7.10;;
64550;SDS011;50945;44.472;-123.352;2022-10-14T04:39:05;13.93;;;7.20;;
64550;SDS011;50945;44.472;-123.352;2022-10-14T04:41:32;14.55;;;8.07;;
64550;SDS011;50945;44.472;-123.352;2022-10-14T04:43:59;11.45;;;7.28;;
64550;SDS011;50945;44.472;-123.352;2022-10-14T04:46:26;15.35;;;7.70;;
64550;SDS011;50945;44.472;-123.352;2022-10-14T04:51:19;12.38;;;7.43;;
64550;SDS011;50945;44.472;-123.352;2022-10-14T04:53:46;15.00;;;7.70;;
64550;SDS011;50945;44.472;-123.352;2022-10-14T04:56:13;13.07;;;8.02;;
64550;SDS011;50945;44.472;-123.352;2022-10-14T04:58:39;17.85;;;8.15;;
64550;SDS011;50945;44.472;-123.352;2022-10-14T05:01:06;14.32;;;7.68;;
64550;SDS011;50945;44.472;-123.352;2022-10-14T05:03:36;12.23;;;7.38;;
64550;SDS011;50945;44.472;-123.352;2022-10-14T05:06:03;12.10;;;7.63;;
64550;SDS011;50945;44.472;-123.352;2022-10-14T05:08:30;16.42;;;7.70;;
64550;SDS011;50945;44.472;-123.352;2022-10-14T05:10:57;10.82;;;7.00;;
64550;SDS011;50945;44.472;-123.352;2022-10-14T05:13:24;10.43;;;7.10;;
64550;SDS011;50945;44.472;-123.352;2022-10-14T05:15:51;12.52;;;7.32;;
64550;SDS011;50945;44.472;-123.352;2022-10-14T05:18:19;12.00;;;7.63;;
64550;SDS011;50945;44.472;-123.352;2022-10-14T05:20:45;13.45;;;8.27;;
64550;SDS011;50945;44.472;-123.352;2022-10-14T05:23:12;11.55;;;7.60;;
64550;SDS011;50945;44.472;-123.352;2022-10-14T05:25:39;15.13;;;6.88;;
64550;SDS011;50945;44.472;-123.352;2022-10-14T05:28:06;15.52;;;8.02;;
64550;SDS011;50945;44.472;-123.352;2022-10-14T05:30:33;13.40;;;6.85;;
64550;SDS011;50945;44.472;-123.352;2022-10-14T05:33:00;11.57;;;6.95;;
64550;SDS011;50945;44.472;-123.352;2022-10-14T05:35:27;13.38;;;7.22;;
64550;SDS011;50945;44.472;-123.352;2022-10-14T05:40:23;12.15;;;7.25;;
64550;SDS011;50945;44.472;-123.352;2022-10-14T05:45:16;12.75;;;6.78;;
64550;SDS011;50945;44.472;-123.352;2022-10-14T05:47:43;10.88;;;7.15;;
64550;SDS011;50945;44.472;-123.352;2022-10-14T05:50:10;11.20;;;7.35;;
64550;SDS011;50945;44.472;-123.352;2022-10-14T05:52:38;10.65;;;6.80;;
64550;SDS011;50945;44.472;-123.352;2022-10-14T05:55:06;11.32;;;7.10;;
64550;SDS011;50945;44.472;-123.352;2022-10-14T05:57:33;10.73;;;6.90;;
64550;SDS011;50945;44.472;-123.352;2022-10-14T06:00:00;12.98;;;7.30;;
64550;SDS011;50945;44.472;-123.352;2022-10-14T06:02:26;12.32;;;6.72;;
64550;SDS011;50945;44.472;-123.352;2022-10-14T06:04:53;13.73;;;7.32;;
64550;SDS011;50945;44.472;-123.352;2022-10-14T06:07:20;15.95;;;7.53;;
64550;SDS011;50945;44.472;-123.352;2022-10-14T06:09:47;13.40;;;7.38;;
64550;SDS011;50945;44.472;-123.352;2022-10-14T06:12:13;14.85;;;6.80;;
64550;SDS011;50945;44.472;-123.352;2022-10-14T06:14:40;10.68;;;6.68;;
64550;SDS011;50945;44.472;-123.352;2022-10-14T06:17:06;12.93;;;7.03;;
64550;SDS011;50945;44.472;-123.352;2022-10-14T06:19:33;12.85;;;7.38;;
64550;SDS011;50945;44.472;-123.352;2022-10-14T06:24:26;9.77;;;7.43;;
64550;SDS011;50945;44.472;-123.352;2022-10-14T06:26:53;12.43;;;7.70;;
64550;SDS011;50945;44.472;-123.352;2022-10-14T06:29:19;12.98;;;7.65;;
64550;SDS011;50945;44.472;-123.352;2022-10-14T06:31:50;13.35;;;8.63;;
64550;SDS011;50945;44.472;-123.352;2022-10-14T06:34:17;15.95;;;7.20;;
64550;SDS011;50945;44.472;-123.352;2022-10-14T06:36:47;12.35;;;7.03;;
64550;SDS011;50945;44.472;-123.352;2022-10-14T06:39:13;14.65;;;7.28;;
64550;SDS011;50945;44.472;-123.352;2022-10-14T06:41:41;11.65;;;6.93;;
64550;SDS011;50945;44.472;-123.352;2022-10-14T06:46:34;10.05;;;6.93;;
64550;SDS011;50945;44.472;-123.352;2022-10-14T06:49:00;13.07;;;7.07;;
64550;SDS011;50945;44.472;-123.352;2022-10-14T06:53:54;11.68;;;7.03;;
64550;SDS011;50945;44.472;-123.352;2022-10-14T06:58:46;11.52;;;6.85;;
64550;SDS011;50945;44.472;-123.352;2022-10-14T07:01:13;12.90;;;6.82;;
64550;SDS011;50945;44.472;-123.352;2022-10-14T07:03:39;9.40;;;6.40;;
64550;SDS011;50945;44.472;-123.352;2022-10-14T07:06:06;11.40;;;7.15;;
64550;SDS011;50945;44.472;-123.352;2022-10-14T07:08:33;12.68;;;6.82;;
64550;SDS011;50945;44.472;-123.352;2022-10-14T07:11:00;15.20;;;7.05;;
64550;SDS011;50945;44.472;-123.352;2022-10-14T07:13:26;11.63;;;8.02;;
64550;SDS011;50945;44.472;-123.352;2022-10-14T07:15:52;14.68;;;7.53;;
64550;SDS011;50945;44.472;-123.352;2022-10-14T07:18:19;15.50;;;8.02;;
64550;SDS011;50945;44.472;-123.352;2022-10-14T07:20:45;12.45;;;7.18;;
64550;SDS011;50945;44.472;-123.352;2022-10-14T07:25:38;9.85;;;6.63;;
64550;SDS011;50945;44.472;-123.352;2022-10-14T07:28:04;13.38;;;7.07;;
64550;SDS011;50945;44.472;-123.352;2022-10-14T07:30:31;11.45;;;7.18;;
64550;SDS011;50945;44.472;-123.352;2022-10-14T07:33:00;11.38;;;7.32;;
64550;SDS011;50945;44.472;-123.352;2022-10-14T07:35:26;14.07;;;6.82;;
64550;SDS011;50945;44.472;-123.352;2022-10-14T07:37:53;12.35;;;7.15;;
64550;SDS011;50945;44.472;-123.352;2022-10-14T07:40:20;13.63;;;7.07;;
64550;SDS011;50945;44.472;-123.352;2022-10-14T07:42:46;10.25;;;6.80;;
64550;SDS011;50945;44.472;-123.352;2022-10-14T07:45:12;15.15;;;7.40;;
64550;SDS011;50945;44.472;-123.352;2022-10-14T07:47:44;11.70;;;6.57;;
64550;SDS011;50945;44.472;-123.352;2022-10-14T07:50:12;12.15;;;7.53;;
64550;SDS011;50945;44.472;-123.352;2022-10-14T07:52:39;13.55;;;7.30;;
64550;SDS011;50945;44.472;-123.352;2022-10-14T07:55:05;13.90;;;7.15;;
64550;SDS011;50945;44.472;-123.352;2022-10-14T07:57:32;13.32;;;7.55;;
64550;SDS011;50945;44.472;-123.352;2022-10-14T07:59:58;13.00;;;7.25;;
64550;SDS011;50945;44.472;-123.352;2022-10-14T08:02:25;12.25;;;6.90;;
64550;SDS011;50945;44.472;-123.352;2022-10-14T08:04:53;10.13;;;6.72;;
64550;SDS011;50945;44.472;-123.352;2022-10-14T08:07:20;12.40;;;6.47;;
64550;SDS011;50945;44.472;-123.352;2022-10-14T08:09:48;12.75;;;7.07;;
64550;SDS011;50945;44.472;-123.352;2022-10-14T08:12:14;11.30;;;7.30;;
64550;SDS011;50945;44.472;-123.352;2022-10-14T08:14:40;12.65;;;7.03;;
64550;SDS011;50945;44.472;-123.352;2022-10-14T08:17:07;11.30;;;6.90;;
64550;SDS011;50945;44.472;-123.352;2022-10-14T08:19:33;10.50;;;6.90;;
64550;SDS011;50945;44.472;-123.352;2022-10-14T08:21:59;11.68;;;6.53;;
64550;SDS011;50945;44.472;-123.352;2022-10-14T08:24:25;11.32;;;6.60;;
64550;SDS011;50945;44.472;-123.352;2022-10-14T08:29:19;15.00;;;7.15;;
64550;SDS011;50945;44.472;-123.352;2022-10-14T08:31:50;11.85;;;6.95;;
64550;SDS011;50945;44.472;-123.352;2022-10-14T08:34:18;13.52;;;7.03;;
64550;SDS011;50945;44.472;-123.352;2022-10-14T08:36:46;12.30;;;7.65;;
64550;SDS011;50945;44.472;-123.352;2022-10-14T08:39:15;11.18;;;6.90;;
64550;SDS011;50945;44.472;-123.352;2022-10-14T08:44:48;10.77;;;6.90;;
64550;SDS011;50945;44.472;-123.352;2022-10-14T08:47:40;12.38;;;6.75;;
64550;SDS011;50945;44.472;-123.352;2022-10-14T08:52:54;11.20;;;7.20;;
64550;SDS011;50945;44.472;-123.352;2022-10-14T09:00:53;11.93;;;7.13;;
64550;SDS011;50945;44.472;-123.352;2022-10-14T09:03:21;11.43;;;7.22;;
64550;SDS011;50945;44.472;-123.352;2022-10-14T09:06:04;12.25;;;7.00;;
64550;SDS011;50945;44.472;-123.352;2022-10-14T09:08:37;12.48;;;7.32;;
64550;SDS011;50945;44.472;-123.352;2022-10-14T09:11:09;9.88;;;6.63;;
64550;SDS011;50945;44.472;-123.352;2022-10-14T09:13:44;10.75;;;7.45;;
64550;SDS011;50945;44.472;-123.352;2022-10-14T09:16:19;11.93;;;8.13;;
64550;SDS011;50945;44.472;-123.352;2022-10-14T09:18:59;12.93;;;7.43;;
64550;SDS011;50945;44.472;-123.352;2022-10-14T09:21:31;11.45;;;7.00;;
64550;SDS011;50945;44.472;-123.352;2022-10-14T09:26:44;10.38;;;6.97;;
64550;SDS011;50945;44.472;-123.352;2022-10-14T09:32:11;15.13;;;8.10;;
64550;SDS011;50945;44.472;-123.352;2022-10-14T09:34:43;12.05;;;6.82;;
64550;SDS011;50945;44.472;-123.352;2022-10-14T09:42:31;10.60;;;7.82;;
64550;SDS011;50945;44.472;-123.352;2022-10-14T09:45:14;11.27;;;7.35;;
64550;SDS011;50945;44.472;-123.352;2022-10-14T09:47:51;10.00;;;6.97;;
64550;SDS011;50945;44.472;-123.352;2022-10-14T09:50:30;13.35;;;6.78;;
64550;SDS011;50945;44.472;-123.352;2022-10-14T09:53:04;10.43;;;6.72;;
64550;SDS011;50945;44.472;-123.352;2022-10-14T09:55:48;10.93;;;7.45;;
64550;SDS011;50945;44.472;-123.352;2022-10-14T09:58:23;12.35;;;6.72;;
64550;SDS011;50945;44.472;-123.352;2022-10-14T10:01:12;12.23;;;7.03;;
64550;SDS011;50945;44.472;-123.352;2022-10-14T10:03:41;8.20;;;6.20;;
64550;SDS011;50945;44.472;-123.352;2022-10-14T10:06:11;10.80;;;7.53;;
64550;SDS011;50945;44.472;-123.352;2022-10-14T10:08:40;11.30;;;7.57;;
64550;SDS011;50945;44.472;-123.352;2022-10-14T10:11:29;13.02;;;7.03;;
64550;SDS011;50945;44.472;-123.352;2022-10-14T10:17:09;11.73;;;6.63;;
64550;SDS011;50945;44.472;-123.352;2022-10-14T10:19:41;11.15;;;7.18;;
64550;SDS011;50945;44.472;-123.352;2022-10-14T10:25:15;10.90;;;7.00;;
64550;SDS011;50945;44.472;-123.352;2022-10-14T10:27:44;15.25;;;7.40;;
64550;SDS011;50945;44.472;-123.352;2022-10-14T10:32:56;12.43;;;6.47;;
64550;SDS011;50945;44.472;-123.352;2022-10-14T10:38:31;12.25;;;6.82;;
64550;SDS011;50945;44.472;-123.352;2022-10-14T10:52:33;9.50;;;6.85;;
64550;SDS011;50945;44.472;-123.352;2022-10-14T11:00:53;11.88;;;7.72;;
64550;SDS011;50945;44.472;-123.352;2022-10-14T11:06:20;12.88;;;7.15;;
64550;SDS011;50945;44.472;-123.352;2022-10-14T11:09:24;14.23;;;7.78;;
64550;SDS011;50945;44.472;-123.352;2022-10-14T11:12:20;11.52;;;6.68;;
64550;SDS011;50945;44.472;-123.352;2022-10-14T11:15:21;11.93;;;7.05;;
64550;SDS011;50945;44.472;-123.352;2022-10-14T11:29:07;14.88;;;6.93;;
64550;SDS011;50945;44.472;-123.352;2022-10-14T11:31:47;11.65;;;7.55;;
64550;SDS011;50945;44.472;-123.352;2022-10-14T11:34:41;13.75;;;7.43;;
64550;SDS011;50945;44.472;-123.352;2022-10-14T11:40:26;12.10;;;6.72;;
64550;SDS011;50945;44.472;-123.352;2022-10-14T11:51:06;13.93;;;6.85;;
64550;SDS011;50945;44.472;-123.352;2022-10-14T11:54:21;10.23;;;6.50;;
64550;SDS011;50945;44.472;-123.352;2022-10-14T11:56:27;12.35;;;7.03;;
64550;SDS011;50945;44.472;-123.352;2022-10-14T11:59:01;14.32;;;7.32;;
64550;SDS011;50945;44.472;-123.352;2022-10-14T12:01:34;13.98;;;7.15;;
64550;SDS011;50945;44.472;-123.352;2022-10-14T12:04:27;13.85;;;6.88;;
64550;SDS011;50945;44.472;-123.352;2022-10-14T12:07:05;11.23;;;6.63;;
64550;SDS011;50945;44.472;-123.352;2022-10-14T12:09:40;16.17;;;7.78;;
64550;SDS011;50945;44.472;-123.352;2022-10-14T12:12:12;9.80;;;6.28;;
64550;SDS011;50945;44.472;-123.352;2022-10-14T12:14:53;9.90;;;6.80;;
64550;SDS011;50945;44.472;-123.352;2022-10-14T12:19:47;13.75;;;7.28;;
64550;SDS011;50945;44.472;-123.352;2022-10-14T12:22:24;11.18;;;6.72;;
64550;SDS011;50945;44.472;-123.352;2022-10-14T12:24:55;14.80;;;6.95;;
64550;SDS011;50945;44.472;-123.352;2022-10-14T12:27:26;12.23;;;6.53;;
64550;SDS011;50945;44.472;-123.352;2022-10-14T12:29:54;12.38;;;6.38;;
64550;SDS011;50945;44.472;-123.352;2022-10-14T12:32:26;10.10;;;6.70;;
64550;SDS011;50945;44.472;-123.352;2022-10-14T12:34:58;12.65;;;7.22;;
64550;SDS011;50945;44.472;-123.352;2022-10-14T12:42:30;12.20;;;8.05;;
64550;SDS011;50945;44.472;-123.352;2022-10-14T12:45:31;11.38;;;7.63;;
64550;SDS011;50945;44.472;-123.352;2022-10-14T12:50:45;14.52;;;6.38;;
64550;SDS011;50945;44.472;-123.352;2022-10-14T12:55:55;14.88;;;7.30;;
64550;SDS011;50945;44.472;-123.352;2022-10-14T13:00:57;12.80;;;6.82;;
64550;SDS011;50945;44.472;-123.352;2022-10-14T13:03:31;13.98;;;7.15;;
64550;SDS011;50945;44.472;-123.352;2022-10-14T13:11:37;15.73;;;6.70;;
64550;SDS011;50945;44.472;-123.352;2022-10-14T13:22:01;8.73;;;6.25;;
64550;SDS011;50945;44.472;-123.352;2022-10-14T13:24:30;12.00;;;6.65;;
64550;SDS011;50945;44.472;-123.352;2022-10-14T13:29:54;13.98;;;7.38;;
64550;SDS011;50945;44.472;-123.352;2022-10-14T13:32:44;14.85;;;7.00;;
64550;SDS011;50945;44.472;-123.352;2022-10-14T13:37:59;12.50;;;6.97;;
64550;SDS011;50945;44.472;-123.352;2022-10-14T13:40:36;9.77;;;5.50;;
64550;SDS011;50945;44.472;-123.352;2022-10-14T13:46:06;9.90;;;6.07;;
64550;SDS011;50945;44.472;-123.352;2022-10-14T13:48:43;9.63;;;6.80;;
64550;SDS011;50945;44.472;-123.352;2022-10-14T13:53:54;12.85;;;6.28;;
64550;SDS011;50945;44.472;-123.352;2022-10-14T13:56:24;9.05;;;6.40;;
64550;SDS011;50945;44.472;-123.352;2022-10-14T13:58:52;13.98;;;7.80;;
64550;SDS011;50945;44.472;-123.352;2022-10-14T14:01:20;14.02;;;7.10;;
64550;SDS011;50945;44.472;-123.352;2022-10-14T14:03:55;11.95;;;6.50;;
64550;SDS011;50945;44.472;-123.352;2022-10-14T14:06:23;15.13;;;6.60;;
64550;SDS011;50945;44.472;-123.352;2022-10-14T14:08:52;9.98;;;6.47;;
64550;SDS011;50945;44.472;-123.352;2022-10-14T14:11:22;14.98;;;7.40;;
64550;SDS011;50945;44.472;-123.352;2022-10-14T14:13:58;11.95;;;7.05;;
64550;SDS011;50945;44.472;-123.352;2022-10-14T14:16:30;13.68;;;7.22;;
64550;SDS011;50945;44.472;-123.352;2022-10-14T14:19:00;11.25;;;6.85;;
64550;SDS011;50945;44.472;-123.352;2022-10-14T14:21:27;10.60;;;6.80;;
64550;SDS011;50945;44.472;-123.352;2022-10-14T14:26:39;15.23;;;6.50;;
64550;SDS011;50945;44.472;-123.352;2022-10-14T14:29:06;12.02;;;7.32;;
64550;SDS011;50945;44.472;-123.352;2022-10-14T14:31:42;14.07;;;6.93;;
64550;SDS011;50945;44.472;-123.352;2022-10-14T14:34:17;13.45;;;7.55;;
64550;SDS011;50945;44.472;-123.352;2022-10-14T14:36:45;13.38;;;6.65;;
64550;SDS011;50945;44.472;-123.352;2022-10-14T14:41:51;13.15;;;7.15;;
64550;SDS011;50945;44.472;-123.352;2022-10-14T14:44:20;11.20;;;6.47;;
64550;SDS011;50945;44.472;-123.352;2022-10-14T14:46:52;15.73;;;6.85;;
64550;SDS011;50945;44.472;-123.352;2022-10-14T14:49:25;14.23;;;6.93;;
64550;SDS011;50945;44.472;-123.352;2022-10-14T14:54:29;15.75;;;7.93;;
64550;SDS011;50945;44.472;-123.352;2022-10-14T15:02:03;19.45;;;6.90;;
64550;SDS011;50945;44.472;-123.352;2022-10-14T15:04:40;20.08;;;7.28;;
64550;SDS011;50945;44.472;-123.352;2022-10-14T15:07:11;16.42;;;6.97;;
64550;SDS011;50945;44.472;-123.352;2022-10-14T15:09:49;20.35;;;7.03;;
64550;SDS011;50945;44.472;-123.352;2022-10-14T15:17:33;13.80;;;6.95;;
64550;SDS011;50945;44.472;-123.352;2022-10-14T15:25:11;13.30;;;6.35;;
64550;SDS011;50945;44.472;-123.352;2022-10-14T15:33:32;12.35;;;7.32;;
64550;SDS011;50945;44.472;-123.352;2022-10-14T15:38:24;18.42;;;7.22;;
64550;SDS011;50945;44.472;-123.352;2022-10-14T15:45:46;11.20;;;6.10;;
64550;SDS011;50945;44.472;-123.352;2022-10-14T15:48:39;13.45;;;7.45;;
64550;SDS011;50945;44.472;-123.352;2022-10-14T15:51:28;15.98;;;7.13;;
64550;SDS011;50945;44.472;-123.352;2022-10-14T15:53:55;14.93;;;7.57;;
64550;SDS011;50945;44.472;-123.352;2022-10-14T15:56:22;17.70;;;7.68;;
64550;SDS011;50945;44.472;-123.352;2022-10-14T15:58:49;15.68;;;7.22;;
64550;SDS011;50945;44.472;-123.352;2022-10-14T16:01:17;17.58;;;7.88;;
64550;SDS011;50945;44.472;-123.352;2022-10-14T16:03:45;15.43;;;7.28;;
64550;SDS011;50945;44.472;-123.352;2022-10-14T16:06:13;13.43;;;7.22;;
64550;SDS011;50945;44.472;-123.352;2022-10-14T16:08:41;19.15;;;7.88;;
64550;SDS011;50945;44.472;-123.352;2022-10-14T16:11:28;14.10;;;7.47;;
64550;SDS011;50945;44.472;-123.352;2022-10-14T16:13:55;14.15;;;7.30;;
64550;SDS011;50945;44.472;-123.352;2022-10-14T16:16:29;15.30;;;8.02;;
64550;SDS011;50945;44.472;-123.352;2022-10-14T16:18:59;13.73;;;7.00;;
64550;SDS011;50945;44.472;-123.352;2022-10-14T16:21:26;13.98;;;7.43;;
64550;SDS011;50945;44.472;-123.352;2022-10-14T16:23:56;12.15;;;7.80;;
64550;SDS011;50945;44.472;-123.352;2022-10-14T16:26:25;13.07;;;7.97;;
64550;SDS011;50945;44.472;-123.352;2022-10-14T16:28:55;13.10;;;7.13;;
64550;SDS011;50945;44.472;-123.352;2022-10-14T16:31:22;12.85;;;7.15;;
64550;SDS011;50945;44.472;-123.352;2022-10-14T16:33:48;15.63;;;8.27;;
64550;SDS011;50945;44.472;-123.352;2022-10-14T16:36:16;15.75;;;8.30;;
64550;SDS011;50945;44.472;-123.352;2022-10-14T16:38:43;14.02;;;8.25;;
64550;SDS011;50945;44.472;-123.352;2022-10-14T16:41:09;14.88;;;7.93;;
64550;SDS011;50945;44.472;-123.352;2022-10-14T16:43:36;12.23;;;7.50;;
64550;SDS011;50945;44.472;-123.352;2022-10-14T16:46:03;12.90;;;7.25;;
64550;SDS011;50945;44.472;-123.352;2022-10-14T16:48:33;16.20;;;7.82;;
64550;SDS011;50945;44.472;-123.352;2022-10-14T16:51:00;12.63;;;7.70;;
64550;SDS011;50945;44.472;-123.352;2022-10-14T16:53:29;14.43;;;8.13;;
64550;SDS011;50945;44.472;-123.352;2022-10-14T16:56:06;11.40;;;7.10;;
64550;SDS011;50945;44.472;-123.352;2022-10-14T16:58:55;14.57;;;7.43;;
64550;SDS011;50945;44.472;-123.352;2022-10-14T17:01:22;12.75;;;8.27;;
64550;SDS011;50945;44.472;-123.352;2022-10-14T17:03:52;16.35;;;9.13;;
64550;SDS011;50945;44.472;-123.352;2022-10-14T17:06:20;15.73;;;8.75;;
64550;SDS011;50945;44.472;-123.352;2022-10-14T17:08:46;17.27;;;9.88;;
64550;SDS011;50945;44.472;-123.352;2022-10-14T17:11:13;13.05;;;7.75;;
64550;SDS011;50945;44.472;-123.352;2022-10-14T17:13:39;14.05;;;7.88;;
64550;SDS011;50945;44.472;-123.352;2022-10-14T17:16:05;14.00;;;7.88;;
64550;SDS011;50945;44.472;-123.352;2022-10-14T17:18:32;12.75;;;8.18;;
64550;SDS011;50945;44.472;-123.352;2022-10-14T17:21:00;16.83;;;8.85;;
64550;SDS011;50945;44.472;-123.352;2022-10-14T17:23:31;13.13;;;7.95;;
64550;SDS011;50945;44.472;-123.352;2022-10-14T17:25:59;15.55;;;8.85;;
64550;SDS011;50945;44.472;-123.352;2022-10-14T17:28:26;13.38;;;8.43;;
64550;SDS011;50945;44.472;-123.352;2022-10-14T17:30:54;17.35;;;8.75;;
64550;SDS011;50945;44.472;-123.352;2022-10-14T17:33:21;17.38;;;9.77;;
64550;SDS011;50945;44.472;-123.352;2022-10-14T17:35:58;17.77;;;10.40;;
64550;SDS011;50945;44.472;-123.352;2022-10-14T17:38:26;15.63;;;9.43;;
64550;SDS011;50945;44.472;-123.352;2022-10-14T17:41:04;15.57;;;9.30;;
64550;SDS011;50945;44.472;-123.352;2022-10-14T17:43:32;16.73;;;10.10;;
64550;SDS011;50945;44.472;-123.352;2022-10-14T17:46:05;17.38;;;9.90;;
64550;SDS011;50945;44.472;-123.352;2022-10-14T17:48:36;14.63;;;10.02;;
64550;SDS011;50945;44.472;-123.352;2022-10-14T17:51:07;22.83;;;11.10;;
64550;SDS011;50945;44.472;-123.352;2022-10-14T17:53:34;16.77;;;11.32;;
64550;SDS011;50945;44.472;-123.352;2022-10-14T17:56:02;19.45;;;10.98;;